Terminal Aerodrome Forecast
Issued by NWS

Home | Current Version | Previous Version | Graphics & Text | Print | Product List | Glossary On
Versions: 1 2 3 4 5 6 7 8 9 10 11 12 13 14
000
FTUS43 KTOP 200520
TAFMHK
TAF
KMHK 200520Z 2006/2106 18015G25KT P6SM FEW250 WS020/19055KT
     FM201200 23011KT P6SM SKC
     FM201600 35008KT P6SM FEW250
     FM201900 04008KT P6SM FEW200=

USA.gov is the U.S. government's official web portal to all federal, state and local government web resources and services.